首页
METAR-TAF:

METAR-TAF

机场 :

乔莫·肯雅塔国际机场

奈洛比, 肯尼亚

纬度: 01-19S, 经度: 036-55E, 海拔: 1624米

当前天气观测

该预报发布于59分钟前的10:30 UTC
风速10节,风向东转东南
温度 22°C
湿度 53%
气压 1025 hPa
能见度10公里或以上
多云层高于2300英尺

METAR: HKJK 211030Z 11010KT 9999 BKN023 22/12 Q1025 NOSIG

时间: 14:29 (11:29 UTC)

预报

该预报发布于6小时和29分钟前的05:00 UTC
预报有效从21日的 06点(UTC)到 22日的 12点(UTC)
风速10节,风向南转南东
能见度10公里或以上
散云层高于2500英尺
成为
从 21日的 15点(UTC)到 21日的 18点(UTC)
风速10节,风向
成为
从 22日的 00点(UTC)到 22日的 03点(UTC)
风速5节,风向南转西南
多云层高于1500英尺
成为
从 22日的 07点(UTC)到 22日的 10点(UTC)
风速10节,风向南转南东
散云层高于2500英尺

TAF: HKJK 210500Z 2106/2212 15010KT 9999 SCT025 BECMG 2115/2118 08010KT BECMG 2200/2203 21005KT BKN015 BECMG 2207/2210 15010KT SCT025

超过4000个机场的气象观测和天气预报(METAR&TAF报告)。

可查询的气象台以黄色和红色小点在地图上表示。

将鼠标移到小点上方,可查看气象台名称。

然后点击查看天气观测和预报。

如需切换地图:点击带黑十字的绿色按钮放大地图;点击带横线的绿色按钮缩小地图;或者点击绿色箭头查看邻近地区的地图。


METAR-TAF: